Time;durP1;ratioP1;P1;durP2;ratioP2;P2;SDS_P1;SDS_P2;PMS_P1;PMS_P2;Temp;Humidity;BMP_temperature;BMP_pressure;BME280_temperature;BME280_humidity;BME280_pressure;Samples;Min_cycle;Max_cycle;Signal;HPM_P1;HPM_P2
2021/06/20 08:10:32;;;;;;;;;4.00;4.00;;;;;20.50;64.77;100665.72;6244060;22;45296;-81
2021/06/20 08:12:58;;;;;;;;;3.00;3.00;;;;;20.64;64.34;100660.94;6242837;22;47307;-82
2021/06/20 08:15:23;;;;;;;;;6.00;4.00;;;;;20.84;63.78;100664.84;6242353;22;45458;-81
2021/06/20 08:17:49;;;;;;;;;4.33;3.00;;;;;21.09;63.48;100669.56;6243537;22;45425;-81
2021/06/20 08:20:14;;;;;;;;;4.33;3.00;;;;;21.32;63.59;100665.34;6244433;22;45269;-82
2021/06/20 08:22:41;;;;;;;;;5.00;4.00;;;;;21.54;62.60;100663.84;6243869;22;46324;-81
2021/06/20 08:25:08;;;;;;;;;2.67;2.67;;;;;21.81;62.56;100662.13;6243540;22;45355;-82
2021/06/20 08:27:46;;;;;;;;;5.00;3.33;;;;;22.03;61.95;100664.19;6244234;22;45710;-82
2021/06/20 08:30:15;;;;;;;;;4.67;4.33;;;;;22.19;62.02;100651.16;6245661;22;45445;-81
2021/06/20 08:32:41;;;;;;;;;3.67;3.67;;;;;22.39;61.37;100638.03;6245454;22;45429;-81
2021/06/20 08:35:13;;;;;;;;;3.00;3.00;;;;;22.75;60.21;100655.59;6245203;22;45431;-81
2021/06/20 08:37:39;;;;;;;;;5.67;5.00;;;;;22.86;60.60;100642.72;6245280;22;45193;-81
2021/06/20 08:40:08;;;;;;;;;3.00;3.00;;;;;23.14;59.48;100649.72;6245807;22;45252;-81
2021/06/20 08:42:37;;;;;;;;;3.33;3.00;;;;;23.50;58.90;100665.47;6245922;22;45409;-82
2021/06/20 08:45:07;;;;;;;;;4.67;3.33;;;;;23.98;58.21;100660.94;6245017;22;45189;-81
2021/06/20 08:47:34;;;;;;;;;4.00;4.00;;;;;24.54;56.84;100668.53;6246168;22;45409;-82
2021/06/20 08:50:06;;;;;;;;;3.33;3.33;;;;;24.90;55.95;100647.28;6218865;22;45371;-81
2021/06/20 08:52:31;;;;;;;;;3.00;3.00;;;;;25.40;55.40;100650.50;6245210;22;45515;-82
2021/06/20 08:55:07;;;;;;;;;3.00;3.00;;;;;25.88;53.20;100650.06;6243351;22;45204;-81
2021/06/20 08:57:39;;;;;;;;;4.33;3.00;;;;;26.19;52.93;100637.78;6243542;22;45405;-81
2021/06/20 09:00:08;;;;;;;;;3.67;3.00;;;;;26.47;52.34;100636.41;6246035;22;45369;-80
2021/06/20 09:02:36;;;;;;;;;4.00;3.00;;;;;26.79;52.37;100643.75;6245092;22;45391;-80
2021/06/20 09:05:08;;;;;;;;;0.00;0.00;;;;;27.12;51.19;100620.47;6245000;22;45259;-81
2021/06/20 09:07:38;;;;;;;;;2.00;2.00;;;;;27.68;50.91;100639.97;6245189;22;45270;-81
2021/06/20 09:10:14;;;;;;;;;3.00;3.00;;;;;28.04;49.77;100621.75;6244354;22;45245;-81
2021/06/20 09:12:57;;;;;;;;;6.33;3.00;;;;;28.54;49.11;100614.31;6244748;22;45458;-82
2021/06/20 09:15:26;;;;;;;;;5.67;2.67;;;;;28.96;49.47;100604.59;6244654;22;45227;-82
2021/06/20 09:17:54;;;;;;;;;2.33;2.33;;;;;29.39;46.73;100609.16;6244950;22;45251;-81
2021/06/20 09:20:37;;;;;;;;;2.00;2.00;;;;;30.00;46.30;100607.06;6244623;22;45386;-81
2021/06/20 09:23:13;;;;;;;;;5.33;2.00;;;;;31.06;45.40;100599.84;6244764;22;45828;-82
2021/06/20 09:25:43;;;;;;;;;3.00;3.00;;;;;32.12;42.82;100607.59;6244471;22;45391;-81
2021/06/20 09:28:13;;;;;;;;;4.00;3.33;;;;;32.24;42.39;100594.88;6244318;22;45247;-81
2021/06/20 09:30:48;;;;;;;;;2.33;2.00;;;;;32.01;40.84;100589.34;6245600;22;45362;-81
2021/06/20 09:33:17;;;;;;;;;4.00;2.00;;;;;31.86;40.04;100571.47;6244288;22;45819;-81
2021/06/20 09:35:52;;;;;;;;;3.00;2.00;;;;;31.98;42.25;100581.41;6247356;22;45343;-90
2021/06/20 09:38:19;;;;;;;;;5.33;4.00;;;;;32.15;41.96;100589.28;6244405;22;45328;-90
2021/06/20 09:40:45;;;;;;;;;3.00;3.00;;;;;32.26;40.99;100591.19;6245410;22;45451;-89
2021/06/20 09:43:16;;;;;;;;;2.00;2.00;;;;;32.31;40.84;100591.69;6247104;22;45340;-89
2021/06/20 09:45:47;;;;;;;;;2.67;2.67;;;;;32.33;41.70;100587.88;6245803;22;45307;-88
2021/06/20 09:48:25;;;;;;;;;2.00;2.00;;;;;32.40;40.37;100604.56;6245536;22;45333;-88
2021/06/20 09:50:51;;;;;;;;;3.00;3.00;;;;;32.36;39.22;100608.53;6246370;22;45397;-89
2021/06/20 09:53:29;;;;;;;;;2.00;1.00;;;;;32.34;39.01;100594.19;6244284;22;47014;-88
2021/06/20 09:56:15;;;;;;;;;2.00;2.00;;;;;32.33;39.33;100598.75;6246137;22;45185;-89
2021/06/20 09:58:45;;;;;;;;;1.33;1.33;;;;;32.25;38.25;100590.31;6244551;22;45320;-90
2021/06/20 10:01:19;;;;;;;;;1.33;1.33;;;;;32.18;38.22;100584.47;6246751;22;45277;-89
2021/06/20 10:03:55;;;;;;;;;1.67;1.00;;;;;32.22;39.23;100585.97;6247631;22;45423;-90
2021/06/20 10:06:21;;;;;;;;;3.33;3.00;;;;;32.26;38.82;100597.47;6244667;22;45483;-90
2021/06/20 10:08:47;;;;;;;;;3.00;2.00;;;;;32.19;38.00;100596.22;6243571;22;45416;-89
2021/06/20 10:11:14;;;;;;;;;2.00;2.00;;;;;32.14;38.05;100591.13;6219278;22;45133;-90
2021/06/20 10:13:40;;;;;;;;;2.00;2.00;;;;;31.95;37.96;100586.22;6252744;22;46371;-89
2021/06/20 10:16:29;;;;;;;;;4.33;3.00;;;;;31.95;38.68;100594.38;6244141;22;45533;-89
2021/06/20 10:19:00;;;;;;;;;2.33;2.00;;;;;31.87;38.19;100567.78;6247229;22;45746;-89
2021/06/20 10:21:40;;;;;;;;;1.00;1.00;;;;;31.88;38.30;100566.78;6248650;22;45212;-90
2021/06/20 10:24:15;;;;;;;;;1.00;1.00;;;;;31.82;38.34;100556.38;6245353;22;45390;-88
2021/06/20 10:26:44;;;;;;;;;2.33;2.00;;;;;31.76;38.47;100550.44;6245824;22;45286;-87
2021/06/20 10:29:29;;;;;;;;;2.67;2.67;;;;;31.76;38.23;100549.56;6248907;22;45562;-88
2021/06/20 10:31:57;;;;;;;;;1.00;1.00;;;;;31.61;39.01;100538.03;6255347;22;45211;-89
2021/06/20 10:34:27;;;;;;;;;2.33;2.33;;;;;31.37;38.41;100536.16;6224558;22;46189;-87
2021/06/20 10:37:00;;;;;;;;;1.67;1.67;;;;;31.21;37.95;100545.41;6255670;22;45322;-89
2021/06/20 10:39:27;;;;;;;;;2.33;1.33;;;;;30.92;38.92;100534.84;6256199;22;45346;-88
2021/06/20 10:42:10;;;;;;;;;3.00;3.00;;;;;30.69;38.78;100510.22;6261907;22;45133;-89
2021/06/20 10:44:41;;;;;;;;;2.00;2.00;;;;;30.71;38.82;100494.72;6257562;22;46163;-89
2021/06/20 10:47:07;;;;;;;;;1.33;1.33;;;;;30.57;39.64;100464.00;6255370;22;45326;-89
2021/06/20 10:49:32;;;;;;;;;2.00;2.00;;;;;30.69;40.10;100472.25;6253900;22;45420;-89
2021/06/20 10:51:58;;;;;;;;;4.67;3.00;;;;;30.57;39.59;100455.88;6256259;22;45350;-89
2021/06/20 10:54:37;;;;;;;;;3.00;3.00;;;;;30.58;39.58;100465.75;6253091;22;46570;-90
2021/06/20 10:57:05;;;;;;;;;2.00;2.00;;;;;30.50;39.56;100451.91;6259986;22;45283;-88
2021/06/20 10:59:59;;;;;;;;;;;;;;;;;;;;;
2021/06/20 11:02:22;;;;;;;;;1.00;1.00;;;;;30.22;39.07;100437.56;6256878;22;45882;-89
2021/06/20 11:04:48;;;;;;;;;3.33;3.33;;;;;30.12;39.87;100438.19;6245287;22;47897;-91
2021/06/20 11:07:22;;;;;;;;;3.00;3.00;;;;;30.06;39.60;100433.22;6247196;22;45213;-89
2021/06/20 11:09:48;;;;;;;;;4.00;2.67;;;;;29.95;39.28;100409.59;6245216;22;45236;-89
2021/06/20 11:12:15;;;;;;;;;4.33;3.00;;;;;29.91;39.76;100392.69;6246399;22;45245;-89
2021/06/20 11:14:45;;;;;;;;;3.33;3.33;;;;;29.96;39.41;100421.28;6217956;22;48229;-89
2021/06/20 11:17:11;;;;;;;;;3.67;3.67;;;;;29.84;39.87;100418.47;6245780;22;45357;-89
2021/06/20 11:19:37;;;;;;;;;3.00;3.00;;;;;29.63;37.32;100404.56;6246017;22;45264;-89
2021/06/20 11:22:05;;;;;;;;;3.00;3.00;;;;;29.47;36.52;100413.72;6245990;22;45320;-90
2021/06/20 11:24:33;;;;;;;;;3.00;3.00;;;;;29.31;37.70;100431.00;6245650;22;45213;-90
2021/06/20 11:27:10;;;;;;;;;2.33;2.33;;;;;29.01;39.00;100408.56;6217916;22;45262;-90
2021/06/20 11:29:48;;;;;;;;;3.00;3.00;;;;;28.98;38.20;100416.88;6218036;22;45432;-89
2021/06/20 11:32:18;;;;;;;;;2.67;2.67;;;;;29.11;38.94;100424.19;6246232;22;45346;-90
2021/06/20 11:34:52;;;;;;;;;3.33;3.33;;;;;29.16;38.80;100413.94;6217591;22;47183;-90
2021/06/20 11:37:20;;;;;;;;;3.67;3.67;;;;;29.27;39.50;100420.47;6245820;22;45403;-91
2021/06/20 11:39:48;;;;;;;;;3.00;3.00;;;;;29.43;39.39;100421.19;6246369;22;45331;-89
2021/06/20 11:42:27;;;;;;;;;3.00;3.00;;;;;29.59;39.31;100412.88;6246410;22;45272;-91
2021/06/20 11:44:58;;;;;;;;;2.33;2.33;;;;;29.74;39.06;100409.25;6245876;22;45277;-91
2021/06/20 11:47:31;;;;;;;;;2.33;2.33;;;;;29.84;39.47;100420.31;6245752;22;45260;-90
2021/06/20 11:49:57;;;;;;;;;3.00;3.00;;;;;29.88;40.05;100400.16;6217886;22;45458;-89
2021/06/20 11:52:23;;;;;;;;;4.67;4.00;;;;;30.03;39.46;100409.06;6247823;22;45342;-90
2021/06/20 11:55:04;;;;;;;;;4.33;4.33;;;;;30.17;39.77;100414.38;6246001;22;45495;-92
2021/06/20 11:57:34;;;;;;;;;3.67;3.67;;;;;30.31;38.38;100427.94;6245877;22;45399;-91
2021/06/20 12:00:10;;;;;;;;;3.33;2.33;;;;;30.29;37.63;100419.91;6249630;22;45166;-91
2021/06/20 12:02:35;;;;;;;;;4.00;4.00;;;;;30.29;36.92;100417.19;6247339;22;45260;-88
2021/06/20 12:05:02;;;;;;;;;5.33;4.00;;;;;30.29;37.40;100419.91;6248279;22;45244;-90
2021/06/20 12:07:33;;;;;;;;;3.67;3.67;;;;;30.36;37.70;100432.03;6220773;22;45429;-90
2021/06/20 12:09:59;;;;;;;;;4.33;3.33;;;;;30.36;37.22;100407.66;6257541;22;45283;-90
2021/06/20 12:12:25;;;;;;;;;6.00;6.00;;;;;30.38;37.34;100389.44;6262032;22;45244;-89
2021/06/20 12:15:03;;;;;;;;;4.00;3.00;;;;;30.34;36.79;100382.50;6261353;22;47105;-90
2021/06/20 12:17:28;;;;;;;;;5.00;4.00;;;;;30.31;36.05;100392.69;6263389;22;44828;-89
2021/06/20 12:19:58;;;;;;;;;4.00;4.00;;;;;30.34;37.03;100387.91;6262158;22;44720;-90
2021/06/20 12:22:24;;;;;;;;;4.67;4.33;;;;;30.36;36.91;100394.09;6256275;22;45176;-90
2021/06/20 12:25:00;;;;;;;;;4.00;4.00;;;;;30.29;36.51;100373.81;6231140;22;47196;-91
2021/06/20 12:27:33;;;;;;;;;8.33;7.33;;;;;30.21;36.55;100387.03;6264109;22;44691;-91
2021/06/20 12:30:16;;;;;;;;;4.67;4.67;;;;;30.04;37.21;100387.25;6259588;22;45303;-90
2021/06/20 12:32:42;;;;;;;;;7.00;7.00;;;;;29.89;37.07;100378.38;6252287;22;45538;-89
2021/06/20 12:35:08;;;;;;;;;4.00;4.00;;;;;29.80;37.73;100379.03;6247717;22;45362;-90
2021/06/20 12:37:51;;;;;;;;;4.33;4.33;;;;;29.84;37.72;100380.56;6246952;22;45356;-91
2021/06/20 12:40:18;;;;;;;;;7.00;5.00;;;;;29.80;36.40;100377.16;6242727;22;45276;-82
2021/06/20 12:42:55;;;;;;;;;3.67;3.00;;;;;29.82;38.07;100382.50;6245451;22;45217;-81
2021/06/20 12:45:33;;;;;;;;;7.67;7.67;;;;;29.84;37.89;100380.56;6244741;22;46032;-81
2021/06/20 12:48:22;;;;;;;;;6.67;5.00;;;;;29.73;37.32;100377.72;6248831;22;45442;-91
2021/06/20 12:50:59;;;;;;;;;8.00;4.00;;;;;29.64;37.83;100369.22;6191994;23;45418;-92
2021/06/20 12:53:40;;;;;;;;;5.00;5.00;;;;;29.47;37.68;100351.44;6192044;23;45203;-91
2021/06/20 12:56:29;;;;;;;;;;;;;;;;;;;;;
2021/06/20 12:59:00;;;;;;;;;3.33;3.33;;;;;29.29;37.86;100348.16;6184621;23;71915;-89
2021/06/20 13:01:26;;;;;;;;;3.67;3.67;;;;;29.28;38.23;100351.84;6183115;23;45400;-90
2021/06/20 13:03:54;;;;;;;;;4.33;3.33;;;;;29.17;38.63;100344.47;6183796;23;45316;-90
2021/06/20 13:06:21;;;;;;;;;8.00;6.00;;;;;29.10;37.93;100354.84;6184238;23;48036;-89
2021/06/20 13:08:50;;;;;;;;;7.67;6.00;;;;;29.00;38.67;100359.97;6195237;22;45340;-90
2021/06/20 13:11:15;;;;;;;;;7.67;6.67;;;;;28.86;38.49;100358.16;6214444;22;45407;-89
2021/06/20 13:13:41;;;;;;;;;9.00;6.33;;;;;28.67;38.37;100343.16;6214535;22;45417;-90
2021/06/20 13:16:06;;;;;;;;;5.67;4.00;;;;;28.66;38.37;100357.66;6213625;22;46188;-90
2021/06/20 13:18:32;;;;;;;;;4.67;4.33;;;;;28.58;38.60;100349.19;6212100;22;45355;-89
2021/06/20 13:20:57;;;;;;;;;5.00;5.00;;;;;28.46;39.60;100338.19;6213321;22;45332;-89
2021/06/20 13:23:23;;;;;;;;;4.00;4.00;;;;;28.43;39.76;100328.44;6213142;22;45394;-89
2021/06/20 13:25:52;;;;;;;;;5.00;5.00;;;;;28.35;39.30;100335.28;6187242;22;48069;-89
2021/06/20 13:28:18;;;;;;;;;10.00;8.33;;;;;28.36;40.17;100346.00;6250769;22;45234;-89
2021/06/20 13:30:49;;;;;;;;;7.67;6.33;;;;;28.30;40.88;100341.00;6244280;22;45440;-90
2021/06/20 13:33:15;;;;;;;;;6.00;6.00;;;;;28.27;40.93;100342.06;6246723;22;45101;-90
2021/06/20 13:35:40;;;;;;;;;6.67;4.00;;;;;28.18;41.56;100321.00;6269328;22;46400;-90
2021/06/20 13:38:06;;;;;;;;;3.33;3.33;;;;;28.15;41.41;100314.00;6270240;22;45226;-89
2021/06/20 13:40:31;;;;;;;;;6.33;5.00;;;;;28.13;41.89;100310.53;6271481;22;45372;-91
2021/06/20 13:42:57;;;;;;;;;4.00;4.00;;;;;28.21;40.81;100331.66;6248674;22;45200;-89
2021/06/20 13:45:25;;;;;;;;;6.33;5.00;;;;;28.09;40.29;100311.66;6270752;22;48487;-89
2021/06/20 13:47:53;;;;;;;;;6.00;5.33;;;;;28.04;42.01;100309.28;6245684;22;45381;-88
2021/06/20 13:50:18;;;;;;;;;4.67;4.67;;;;;27.97;41.09;100292.59;6244520;22;45316;-88
2021/06/20 13:52:44;;;;;;;;;4.00;3.67;;;;;27.95;42.96;100293.63;6248517;22;45222;-90
2021/06/20 13:55:11;;;;;;;;;6.33;5.00;;;;;27.96;43.29;100298.94;6246836;22;47132;-89
2021/06/20 13:57:38;;;;;;;;;6.00;5.00;;;;;27.92;44.08;100296.53;6249021;22;45349;-87
2021/06/20 14:00:08;;;;;;;;;4.00;4.00;;;;;27.99;43.83;100300.56;6273235;22;45353;-88
2021/06/20 14:02:34;;;;;;;;;6.67;5.00;;;;;27.88;43.89;100293.16;6246120;22;45244;-87
2021/06/20 14:05:02;;;;;;;;;4.00;4.00;;;;;27.86;41.60;100295.97;6243406;22;47635;-89
2021/06/20 14:07:27;;;;;;;;;5.00;4.00;;;;;27.78;41.96;100286.59;6243777;22;45277;-89
2021/06/20 14:09:53;;;;;;;;;7.00;5.00;;;;;27.66;43.08;100274.72;6244834;22;45307;-87
2021/06/20 14:12:20;;;;;;;;;3.00;3.00;;;;;27.60;42.25;100263.31;6244096;22;45343;-87
2021/06/20 14:14:46;;;;;;;;;4.00;3.00;;;;;27.53;42.87;100261.97;6246652;22;45437;-89
2021/06/20 14:17:11;;;;;;;;;5.00;5.00;;;;;27.48;42.69;100259.56;6246473;22;45234;-90
2021/06/20 14:19:37;;;;;;;;;4.00;4.00;;;;;27.44;43.08;100246.34;6243448;22;45379;-90
2021/06/20 14:22:02;;;;;;;;;5.00;3.33;;;;;27.37;43.71;100240.47;6245631;22;45269;-88
2021/06/20 14:24:28;;;;;;;;;7.00;6.00;;;;;27.46;44.21;100260.59;6242702;22;46987;-87
2021/06/20 14:26:53;;;;;;;;;5.00;4.00;;;;;27.35;44.48;100248.66;6245292;22;45350;-87
2021/06/20 14:29:19;;;;;;;;;5.00;5.00;;;;;27.31;44.84;100230.06;6217980;22;45280;-87
2021/06/20 14:31:44;;;;;;;;;5.00;4.67;;;;;27.34;45.70;100246.06;6243519;22;45295;-89
2021/06/20 14:34:10;;;;;;;;;5.00;3.00;;;;;27.27;44.14;100234.75;6245606;22;46061;-89
2021/06/20 14:36:37;;;;;;;;;5.00;5.00;;;;;27.28;45.92;100236.50;6245142;22;45173;-88
2021/06/20 14:39:03;;;;;;;;;4.67;4.00;;;;;27.15;46.40;100218.38;6245835;22;45511;-89
2021/06/20 14:41:29;;;;;;;;;5.00;4.67;;;;;27.14;45.40;100218.44;6218166;22;45402;-90
2021/06/20 14:43:54;;;;;;;;;4.33;4.33;;;;;27.15;46.50;100212.97;6216664;22;47608;-89
2021/06/20 14:46:20;;;;;;;;;4.33;4.33;;;;;27.10;46.11;100212.38;6245701;22;45415;-89
2021/06/20 14:48:45;;;;;;;;;4.33;4.33;;;;;27.20;46.53;100220.78;6245818;22;45387;-89
2021/06/20 14:51:10;;;;;;;;;3.33;3.33;;;;;27.08;46.27;100208.91;6246453;22;45383;-91
2021/06/20 14:53:36;;;;;;;;;5.33;4.00;;;;;27.02;45.12;100204.72;6243924;22;45620;-89
2021/06/20 14:56:02;;;;;;;;;6.33;4.00;;;;;27.12;46.00;100221.25;6244474;22;45369;-89
2021/06/20 14:58:27;;;;;;;;;5.00;5.00;;;;;27.09;46.16;100210.66;6246778;22;45453;-87
2021/06/20 15:00:53;;;;;;;;;4.67;4.67;;;;;27.04;46.56;100197.41;6245453;22;45274;-91
2021/06/20 15:03:22;;;;;;;;;4.00;4.00;;;;;27.12;43.23;100210.47;6219414;22;48279;-90
2021/06/20 15:05:47;;;;;;;;;3.00;3.00;;;;;27.11;45.21;100206.03;6247313;22;45192;-90
2021/06/20 15:08:13;;;;;;;;;4.33;4.33;;;;;27.12;45.61;100204.19;6247792;22;45484;-90
2021/06/20 15:10:39;;;;;;;;;3.33;3.33;;;;;27.05;45.48;100188.34;6247676;22;45438;-90
2021/06/20 15:13:04;;;;;;;;;3.33;3.33;;;;;27.06;46.47;100191.91;6244160;22;47280;-90
2021/06/20 15:15:30;;;;;;;;;3.67;3.67;;;;;27.04;46.38;100180.34;6245496;22;45226;-92
2021/06/20 15:17:56;;;;;;;;;4.33;4.33;;;;;27.14;45.83;100199.56;6245534;22;45279;-88
2021/06/20 15:20:21;;;;;;;;;2.00;2.00;;;;;27.01;43.73;100180.56;6245614;22;45322;-88
2021/06/20 15:22:47;;;;;;;;;3.00;3.00;;;;;27.10;42.57;100198.91;6245615;22;46104;-89
2021/06/20 15:25:14;;;;;;;;;3.67;3.33;;;;;26.99;44.98;100180.63;6242788;22;45438;-88
2021/06/20 15:27:40;;;;;;;;;4.00;4.00;;;;;27.09;46.28;100209.78;6245289;22;45241;-87
2021/06/20 15:30:10;;;;;;;;;3.00;3.00;;;;;26.93;44.42;100189.97;6245228;22;45305;-89
2021/06/20 15:32:41;;;;;;;;;3.67;3.67;;;;;27.02;45.38;100198.47;6245005;22;45980;-89
2021/06/20 15:35:07;;;;;;;;;5.33;4.67;;;;;26.92;44.20;100190.06;6244423;22;45241;-89
2021/06/20 15:37:32;;;;;;;;;6.33;4.00;;;;;26.97;44.38;100200.59;6244846;22;45288;-89
2021/06/20 15:39:58;;;;;;;;;4.00;4.00;;;;;26.87;43.73;100197.56;6245256;22;45280;-89
2021/06/20 15:42:23;;;;;;;;;5.00;4.00;;;;;26.80;43.35;100194.38;6242974;22;46545;-89
2021/06/20 15:44:48;;;;;;;;;4.33;4.33;;;;;26.70;45.57;100177.88;6245289;22;45327;-92
2021/06/20 15:47:14;;;;;;;;;3.00;3.00;;;;;26.83;46.24;100204.97;6245552;22;45716;-90
2021/06/20 15:49:39;;;;;;;;;5.00;5.00;;;;;26.83;46.51;100204.97;6245905;22;45248;-89
2021/06/20 15:52:05;;;;;;;;;5.33;5.33;;;;;26.74;45.35;100182.13;6245426;22;45916;-90
2021/06/20 15:54:30;;;;;;;;;4.00;4.00;;;;;26.70;45.78;100180.56;6246009;22;45443;-89
2021/06/20 15:56:56;;;;;;;;;4.33;4.33;;;;;26.78;46.08;100186.38;6246437;22;45334;-88
2021/06/20 15:59:22;;;;;;;;;8.00;5.00;;;;;26.77;47.16;100190.03;6246208;22;45611;-89
2021/06/20 16:01:47;;;;;;;;;5.00;5.00;;;;;26.71;47.87;100190.41;6255647;22;45686;-86
2021/06/20 16:04:12;;;;;;;;;6.00;5.00;;;;;26.63;47.09;100176.53;6266102;22;45708;-87
2021/06/20 16:06:38;;;;;;;;;4.67;4.67;;;;;26.68;46.71;100180.66;6265866;22;44940;-87
2021/06/20 16:09:05;;;;;;;;;4.00;4.00;;;;;26.59;47.70;100171.31;6257176;22;45271;-89
2021/06/20 16:11:32;;;;;;;;;4.00;4.00;;;;;26.63;47.86;100181.91;6243744;22;47075;-92
2021/06/20 16:13:57;;;;;;;;;4.33;4.33;;;;;26.60;47.53;100180.25;6244758;22;45355;-89
2021/06/20 16:16:24;;;;;;;;;5.00;4.33;;;;;26.57;47.51;100175.03;6244291;22;45249;-90
2021/06/20 16:18:50;;;;;;;;;6.33;5.33;;;;;26.51;46.83;100164.63;6242823;22;45424;-87
2021/06/20 16:21:17;;;;;;;;;4.00;4.00;;;;;26.48;47.75;100158.47;6243824;22;45404;-80
2021/06/20 16:23:43;;;;;;;;;5.67;4.33;;;;;26.57;47.89;100184.00;6243545;22;45257;-81
2021/06/20 16:26:08;;;;;;;;;5.67;5.00;;;;;26.52;47.99;100169.94;6243410;22;45272;-79
2021/06/20 16:28:34;;;;;;;;;6.67;4.00;;;;;26.54;48.69;100159.06;6243780;22;45139;-79
2021/06/20 16:31:00;;;;;;;;;5.33;5.33;;;;;26.54;48.24;100167.16;6243555;22;45405;-79
2021/06/20 16:33:25;;;;;;;;;4.67;4.00;;;;;26.53;48.60;100160.00;6243274;22;45130;-80
2021/06/20 16:36:00;;;;;;;;;7.00;5.33;;;;;26.48;48.24;100150.38;6246470;22;45211;-90
2021/06/20 16:38:26;;;;;;;;;5.00;5.00;;;;;26.50;48.80;100154.81;6225061;22;44785;-88
2021/06/20 16:40:51;;;;;;;;;7.33;6.00;;;;;26.38;48.67;100141.06;6266167;22;45089;-87
2021/06/20 16:43:18;;;;;;;;;5.00;5.00;;;;;26.48;48.80;100150.38;6270406;22;45152;-88
2021/06/20 16:45:44;;;;;;;;;5.33;4.00;;;;;26.30;49.24;100125.34;6271130;22;44669;-90
2021/06/20 16:48:09;;;;;;;;;6.33;5.00;;;;;26.43;48.46;100144.41;6259926;22;44669;-89
2021/06/20 16:50:35;;;;;;;;;6.00;5.00;;;;;26.36;48.16;100127.69;6249207;22;45331;-89
2021/06/20 16:53:00;;;;;;;;;5.00;5.00;;;;;26.45;48.84;100147.00;6246712;22;45796;-88
2021/06/20 16:55:26;;;;;;;;;4.00;4.00;;;;;26.44;49.57;100145.28;6246671;22;45423;-88
2021/06/20 16:57:51;;;;;;;;;5.00;4.00;;;;;26.30;49.26;100127.19;6246477;22;45310;-88
2021/06/20 17:00:18;;;;;;;;;6.00;6.00;;;;;26.37;49.30;100150.13;6245775;22;46044;-88
2021/06/20 17:02:44;;;;;;;;;8.33;5.00;;;;;26.31;49.83;100145.09;6217785;22;45346;-88
2021/06/20 17:05:11;;;;;;;;;7.33;6.67;;;;;26.22;49.58;100141.09;6247439;22;45296;-90
2021/06/20 17:07:37;;;;;;;;;5.67;5.00;;;;;26.25;50.04;100127.44;6250949;22;45303;-88
2021/06/20 17:10:09;;;;;;;;;4.00;4.00;;;;;26.16;50.02;100128.88;6248450;22;45551;-89
2021/06/20 17:12:37;;;;;;;;;5.33;5.33;;;;;26.13;49.83;100132.59;6246488;22;45252;-81
2021/06/20 17:15:04;;;;;;;;;5.00;5.00;;;;;26.13;50.42;100154.16;6244773;22;45350;-81
2021/06/20 17:17:29;;;;;;;;;5.00;5.00;;;;;26.08;51.46;100150.00;6244460;22;45371;-81
2021/06/20 17:19:54;;;;;;;;;5.00;4.67;;;;;25.99;51.84;100146.88;6244825;22;46193;-80
2021/06/20 17:22:20;;;;;;;;;6.00;5.00;;;;;25.91;53.09;100151.84;6244831;22;45287;-80
2021/06/20 17:24:45;;;;;;;;;5.00;4.67;;;;;25.81;53.37;100159.53;6245069;22;45364;-80
2021/06/20 17:27:11;;;;;;;;;3.00;2.67;;;;;25.70;53.53;100152.06;6245241;22;45324;-80
2021/06/20 17:29:37;;;;;;;;;6.67;5.67;;;;;25.63;53.11;100169.47;6243997;22;46097;-81
2021/06/20 17:32:03;;;;;;;;;6.00;6.00;;;;;25.56;54.08;100167.13;6244663;22;45228;-80
2021/06/20 17:34:29;;;;;;;;;9.33;7.00;;;;;25.51;54.54;100171.03;6244291;22;45241;-79
2021/06/20 17:36:54;;;;;;;;;8.00;6.67;;;;;25.38;54.93;100154.69;6244892;22;45220;-80
2021/06/20 17:39:20;;;;;;;;;8.00;6.00;;;;;25.34;55.65;100167.41;6244518;22;45288;-80
2021/06/20 17:41:45;;;;;;;;;7.00;7.00;;;;;25.27;54.64;100160.66;6245366;22;45177;-87
2021/06/20 17:44:11;;;;;;;;;5.33;5.00;;;;;25.18;55.28;100162.00;6217601;22;45284;-89
2021/06/20 17:46:37;;;;;;;;;5.67;4.67;;;;;25.02;55.47;100151.19;6243821;22;45304;-87
2021/06/20 17:49:03;;;;;;;;;6.33;6.33;;;;;24.97;56.00;100164.88;6247481;22;45180;-87
2021/06/20 17:51:29;;;;;;;;;7.33;5.67;;;;;24.89;56.45;100170.63;6244054;22;45202;-87
2021/06/20 17:53:55;;;;;;;;;5.00;5.00;;;;;24.85;55.79;100182.50;6217359;22;45339;-87
2021/06/20 17:56:24;;;;;;;;;7.00;6.00;;;;;24.85;56.20;100194.09;6243045;22;45422;-87
2021/06/20 17:58:49;;;;;;;;;6.33;6.33;;;;;24.84;56.67;100204.94;6242818;22;47295;-87
2021/06/20 18:01:15;;;;;;;;;7.67;6.33;;;;;24.79;57.21;100198.94;6245216;22;45208;-87
2021/06/20 18:03:42;;;;;;;;;9.00;7.33;;;;;24.66;57.19;100183.44;6245236;22;45499;-88
2021/06/20 18:06:12;;;;;;;;;8.00;7.00;;;;;24.55;57.87;100169.66;6245823;22;45270;-87
2021/06/20 18:08:39;;;;;;;;;6.00;6.00;;;;;24.57;58.34;100183.91;6244666;22;45464;-87
2021/06/20 18:11:06;;;;;;;;;6.33;6.33;;;;;24.52;58.78;100190.38;6245542;22;45169;-87
2021/06/20 18:13:32;;;;;;;;;9.33;8.67;;;;;24.54;58.61;100205.56;6245975;22;45294;-88
2021/06/20 18:15:57;;;;;;;;;7.33;7.33;;;;;24.47;58.81;100205.84;6247877;22;45142;-87
2021/06/20 18:18:22;;;;;;;;;9.00;8.00;;;;;24.45;59.21;100190.75;6246931;22;45276;-86
2021/06/20 18:20:48;;;;;;;;;11.00;8.00;;;;;24.38;59.04;100192.88;6245194;22;45300;-88
2021/06/20 18:23:13;;;;;;;;;7.33;7.00;;;;;24.35;59.53;100196.56;6245269;22;45320;-86
2021/06/20 18:25:41;;;;;;;;;7.67;6.33;;;;;24.36;59.25;100198.34;6243210;22;45493;-86
2021/06/20 18:28:07;;;;;;;;;10.00;9.00;;;;;24.32;59.46;100194.06;6216857;22;47283;-86
2021/06/20 18:30:36;;;;;;;;;6.67;6.67;;;;;24.27;60.00;100188.03;6242410;22;45284;-86
2021/06/20 18:33:05;;;;;;;;;6.00;6.00;;;;;24.20;60.70;100191.94;6242779;22;45394;-87
2021/06/20 18:35:30;;;;;;;;;8.33;7.00;;;;;24.03;61.04;100164.94;6245240;22;45382;-87
2021/06/20 18:37:56;;;;;;;;;8.67;7.67;;;;;24.03;61.16;100182.88;6244613;22;45358;-87
2021/06/20 18:40:24;;;;;;;;;7.33;6.00;;;;;24.01;61.16;100182.94;6244634;22;45408;-87
2021/06/20 18:42:50;;;;;;;;;9.00;9.00;;;;;23.85;61.48;100166.72;6244981;22;45231;-87
2021/06/20 18:45:16;;;;;;;;;7.33;7.33;;;;;23.80;61.43;100168.72;6244850;22;45296;-88
2021/06/20 18:47:42;;;;;;;;;7.67;7.67;;;;;23.83;61.98;100179.34;6244491;22;45968;-87
2021/06/20 18:50:08;;;;;;;;;8.67;7.67;;;;;23.74;62.12;100174.38;6244423;22;45271;-87
2021/06/20 18:52:34;;;;;;;;;8.33;8.00;;;;;23.65;62.39;100163.16;6244849;22;45428;-87
2021/06/20 18:54:59;;;;;;;;;8.00;8.00;;;;;23.64;62.01;100173.97;6245143;22;45286;-86
2021/06/20 18:57:28;;;;;;;;;8.67;8.00;;;;;23.73;62.49;100194.13;6242956;22;47004;-87
2021/06/20 18:59:54;;;;;;;;;8.00;8.00;;;;;23.69;61.97;100191.56;6244481;22;45373;-87
2021/06/20 19:02:19;;;;;;;;;10.00;8.00;;;;;23.65;63.07;100194.50;6244602;22;45287;-87
2021/06/20 19:04:47;;;;;;;;;7.33;6.67;;;;;23.53;62.82;100185.19;6245624;22;45178;-88
2021/06/20 19:07:13;;;;;;;;;7.00;7.00;;;;;23.60;62.33;100194.69;6245257;22;45248;-87
2021/06/20 19:09:39;;;;;;;;;8.00;7.00;;;;;23.56;61.99;100188.59;6234093;22;45275;-88
2021/06/20 19:12:05;;;;;;;;;8.00;8.00;;;;;23.42;62.50;100169.53;6243924;22;45325;-89
2021/06/20 19:14:31;;;;;;;;;8.67;7.67;;;;;23.39;61.74;100164.34;6219964;22;45587;-87
2021/06/20 19:16:56;;;;;;;;;8.00;8.00;;;;;23.34;61.91;100168.09;6252850;22;45380;-87
2021/06/20 19:19:22;;;;;;;;;8.67;7.00;;;;;23.39;62.21;100173.25;6249852;22;45354;-82
2021/06/20 19:21:47;;;;;;;;;8.00;8.00;;;;;23.35;62.03;100180.53;6245059;22;45335;-81
2021/06/20 19:24:13;;;;;;;;;10.00;7.33;;;;;23.30;62.53;100185.25;6244293;22;45362;-82
2021/06/20 19:26:38;;;;;;;;;9.67;7.33;;;;;23.29;62.13;100196.91;6244414;22;46425;-82
2021/06/20 19:29:04;;;;;;;;;10.67;7.33;;;;;23.23;62.18;100190.03;6243650;22;45316;-83
2021/06/20 19:31:30;;;;;;;;;8.33;7.67;;;;;23.23;62.80;100192.69;6244316;22;45324;-82
2021/06/20 19:33:55;;;;;;;;;7.33;7.33;;;;;23.19;62.74;100180.38;6244308;22;45276;-83
2021/06/20 19:36:22;;;;;;;;;6.00;6.00;;;;;23.20;62.92;100179.44;6244004;22;45132;-81
2021/06/20 19:38:48;;;;;;;;;9.00;8.00;;;;;23.20;63.20;100168.72;6243852;22;45150;-83
2021/06/20 19:41:18;;;;;;;;;10.33;9.00;;;;;23.19;63.41;100174.13;6243682;22;45707;-83